sensor_id;sensor_type;location;lat;lon;timestamp;pressure;altitude;pressure_sealevel;temperature;humidity
70971;BME280;58632;51.718;19.446;2023-04-08T00:01:12;99991.08;;;4.20;100.00
70971;BME280;58632;51.718;19.446;2023-04-08T00:03:37;99989.64;;;4.18;100.00
70971;BME280;58632;51.718;19.446;2023-04-08T00:06:03;99991.53;;;4.17;100.00
70971;BME280;58632;51.718;19.446;2023-04-08T00:08:29;99990.08;;;4.17;100.00
70971;BME280;58632;51.718;19.446;2023-04-08T00:10:54;99992.63;;;4.18;100.00
70971;BME280;58632;51.718;19.446;2023-04-08T00:13:20;99993.38;;;4.17;100.00
70971;BME280;58632;51.718;19.446;2023-04-08T00:15:46;99996.20;;;4.13;100.00
70971;BME280;58632;51.718;19.446;2023-04-08T00:18:12;100002.23;;;4.09;100.00
70971;BME280;58632;51.718;19.446;2023-04-08T00:20:39;99998.23;;;4.09;100.00
70971;BME280;58632;51.718;19.446;2023-04-08T00:23:05;100000.48;;;4.08;100.00
70971;BME280;58632;51.718;19.446;2023-04-08T00:25:30;100002.34;;;4.09;100.00
70971;BME280;58632;51.718;19.446;2023-04-08T00:27:56;100001.27;;;4.07;100.00
70971;BME280;58632;51.718;19.446;2023-04-08T00:30:21;99997.63;;;4.01;100.00
70971;BME280;58632;51.718;19.446;2023-04-08T00:32:47;100000.30;;;3.98;100.00
70971;BME280;58632;51.718;19.446;2023-04-08T00:35:12;99998.94;;;3.96;100.00
70971;BME280;58632;51.718;19.446;2023-04-08T00:37:38;99996.50;;;3.97;100.00
70971;BME280;58632;51.718;19.446;2023-04-08T00:40:05;99996.13;;;3.97;100.00
70971;BME280;58632;51.718;19.446;2023-04-08T00:42:30;99998.89;;;3.96;100.00
70971;BME280;58632;51.718;19.446;2023-04-08T00:44:56;99995.59;;;3.93;100.00
70971;BME280;58632;51.718;19.446;2023-04-08T00:47:21;99997.64;;;3.89;100.00
70971;BME280;58632;51.718;19.446;2023-04-08T00:49:47;99997.42;;;3.86;100.00
70971;BME280;58632;51.718;19.446;2023-04-08T00:52:12;99997.33;;;3.84;100.00
70971;BME280;58632;51.718;19.446;2023-04-08T00:54:38;100000.86;;;3.82;100.00
70971;BME280;58632;51.718;19.446;2023-04-08T00:57:04;100010.38;;;3.78;100.00
70971;BME280;58632;51.718;19.446;2023-04-08T00:59:30;100009.79;;;3.75;100.00
70971;BME280;58632;51.718;19.446;2023-04-08T01:01:58;100008.43;;;3.72;100.00
70971;BME280;58632;51.718;19.446;2023-04-08T01:04:32;100009.73;;;3.73;100.00
70971;BME280;58632;51.718;19.446;2023-04-08T01:07:07;100011.42;;;3.74;100.00
70971;BME280;58632;51.718;19.446;2023-04-08T01:09:34;100011.15;;;3.73;100.00
70971;BME280;58632;51.718;19.446;2023-04-08T01:12:03;100008.38;;;3.70;100.00
70971;BME280;58632;51.718;19.446;2023-04-08T01:14:30;100012.23;;;3.67;100.00
70971;BME280;58632;51.718;19.446;2023-04-08T01:16:57;100013.20;;;3.64;100.00
70971;BME280;58632;51.718;19.446;2023-04-08T01:19:26;100015.15;;;3.66;100.00
70971;BME280;58632;51.718;19.446;2023-04-08T01:21:52;100019.05;;;3.66;100.00
70971;BME280;58632;51.718;19.446;2023-04-08T01:24:21;100020.89;;;3.68;100.00
70971;BME280;58632;51.718;19.446;2023-04-08T01:26:48;100019.16;;;3.70;100.00
70971;BME280;58632;51.718;19.446;2023-04-08T01:29:14;100018.90;;;3.70;100.00
70971;BME280;58632;51.718;19.446;2023-04-08T01:31:41;100021.65;;;3.72;100.00
70971;BME280;58632;51.718;19.446;2023-04-08T01:34:07;100027.84;;;3.74;100.00
70971;BME280;58632;51.718;19.446;2023-04-08T01:36:33;100025.28;;;3.75;100.00
70971;BME280;58632;51.718;19.446;2023-04-08T01:39:01;100029.77;;;3.76;100.00
70971;BME280;58632;51.718;19.446;2023-04-08T01:41:27;100031.20;;;3.76;100.00
70971;BME280;58632;51.718;19.446;2023-04-08T01:43:54;100030.74;;;3.78;100.00
70971;BME280;58632;51.718;19.446;2023-04-08T01:46:20;100032.10;;;3.78;100.00
70971;BME280;58632;51.718;19.446;2023-04-08T01:48:46;100033.30;;;3.78;100.00
70971;BME280;58632;51.718;19.446;2023-04-08T01:51:12;100032.00;;;3.80;100.00
70971;BME280;58632;51.718;19.446;2023-04-08T01:53:39;100032.60;;;3.83;100.00
70971;BME280;58632;51.718;19.446;2023-04-08T01:56:05;100035.47;;;3.85;100.00
70971;BME280;58632;51.718;19.446;2023-04-08T01:58:34;100038.23;;;3.89;100.00
70971;BME280;58632;51.718;19.446;2023-04-08T02:01:01;100040.88;;;3.90;100.00
70971;BME280;58632;51.718;19.446;2023-04-08T02:03:28;100038.71;;;3.90;100.00
70971;BME280;58632;51.718;19.446;2023-04-08T02:05:54;100039.20;;;3.90;100.00
70971;BME280;58632;51.718;19.446;2023-04-08T02:08:19;100039.48;;;3.91;100.00
70971;BME280;58632;51.718;19.446;2023-04-08T02:10:45;100041.98;;;3.93;100.00
70971;BME280;58632;51.718;19.446;2023-04-08T02:13:11;100043.05;;;3.95;100.00
70971;BME280;58632;51.718;19.446;2023-04-08T02:15:37;100048.96;;;3.97;100.00
70971;BME280;58632;51.718;19.446;2023-04-08T02:18:08;100047.88;;;3.97;100.00
70971;BME280;58632;51.718;19.446;2023-04-08T02:20:42;100047.87;;;3.94;100.00
70971;BME280;58632;51.718;19.446;2023-04-08T02:23:15;100052.64;;;3.94;100.00
70971;BME280;58632;51.718;19.446;2023-04-08T02:25:43;100055.54;;;3.97;100.00
70971;BME280;58632;51.718;19.446;2023-04-08T02:28:09;100052.70;;;3.99;100.00
70971;BME280;58632;51.718;19.446;2023-04-08T02:30:36;100054.64;;;3.99;100.00
70971;BME280;58632;51.718;19.446;2023-04-08T02:33:02;100054.44;;;3.99;100.00
70971;BME280;58632;51.718;19.446;2023-04-08T02:35:28;100055.34;;;4.01;100.00
70971;BME280;58632;51.718;19.446;2023-04-08T02:37:54;100060.39;;;4.01;100.00
70971;BME280;58632;51.718;19.446;2023-04-08T02:40:24;100064.68;;;4.01;100.00
70971;BME280;58632;51.718;19.446;2023-04-08T02:42:50;100062.29;;;4.01;100.00
70971;BME280;58632;51.718;19.446;2023-04-08T02:45:15;100065.16;;;4.05;100.00
70971;BME280;58632;51.718;19.446;2023-04-08T02:47:41;100070.09;;;4.06;100.00
70971;BME280;58632;51.718;19.446;2023-04-08T02:50:07;100071.99;;;4.05;100.00
70971;BME280;58632;51.718;19.446;2023-04-08T02:52:32;100071.71;;;4.06;100.00
70971;BME280;58632;51.718;19.446;2023-04-08T02:54:58;100075.35;;;4.08;100.00
70971;BME280;58632;51.718;19.446;2023-04-08T02:57:24;100076.75;;;4.06;100.00
70971;BME280;58632;51.718;19.446;2023-04-08T02:59:50;100073.08;;;4.05;100.00
70971;BME280;58632;51.718;19.446;2023-04-08T03:02:15;100073.67;;;4.03;100.00
70971;BME280;58632;51.718;19.446;2023-04-08T03:04:41;100078.39;;;4.02;100.00
70971;BME280;58632;51.718;19.446;2023-04-08T03:07:07;100079.79;;;4.05;100.00
70971;BME280;58632;51.718;19.446;2023-04-08T03:09:32;100081.09;;;4.03;100.00
70971;BME280;58632;51.718;19.446;2023-04-08T03:11:58;100083.21;;;4.07;100.00
70971;BME280;58632;51.718;19.446;2023-04-08T03:14:24;100083.54;;;4.06;100.00
70971;BME280;58632;51.718;19.446;2023-04-08T03:16:49;100083.96;;;4.08;100.00
70971;BME280;58632;51.718;19.446;2023-04-08T03:19:15;100083.48;;;4.09;100.00
70971;BME280;58632;51.718;19.446;2023-04-08T03:21:40;100090.80;;;4.07;100.00
70971;BME280;58632;51.718;19.446;2023-04-08T03:24:06;100091.13;;;4.03;100.00
70971;BME280;58632;51.718;19.446;2023-04-08T03:26:31;100091.11;;;4.03;100.00
70971;BME280;58632;51.718;19.446;2023-04-08T03:28:57;100096.88;;;4.03;100.00
70971;BME280;58632;51.718;19.446;2023-04-08T03:31:23;100096.27;;;4.04;100.00
70971;BME280;58632;51.718;19.446;2023-04-08T03:33:48;100098.98;;;4.02;100.00
70971;BME280;58632;51.718;19.446;2023-04-08T03:36:14;100100.77;;;4.01;100.00
70971;BME280;58632;51.718;19.446;2023-04-08T03:38:39;100109.06;;;4.00;100.00
70971;BME280;58632;51.718;19.446;2023-04-08T03:41:05;100113.88;;;3.98;100.00
70971;BME280;58632;51.718;19.446;2023-04-08T03:43:31;100114.75;;;3.99;100.00
70971;BME280;58632;51.718;19.446;2023-04-08T03:45:56;100116.81;;;4.01;100.00
70971;BME280;58632;51.718;19.446;2023-04-08T03:48:22;100118.81;;;4.00;100.00
70971;BME280;58632;51.718;19.446;2023-04-08T03:50:47;100122.44;;;3.97;100.00
70971;BME280;58632;51.718;19.446;2023-04-08T03:53:13;100127.76;;;3.95;100.00
70971;BME280;58632;51.718;19.446;2023-04-08T03:55:39;100131.61;;;3.93;100.00
70971;BME280;58632;51.718;19.446;2023-04-08T03:58:04;100135.51;;;3.93;100.00
70971;BME280;58632;51.718;19.446;2023-04-08T04:00:30;100135.22;;;3.89;100.00
70971;BME280;58632;51.718;19.446;2023-04-08T04:02:56;100136.95;;;3.84;100.00
70971;BME280;58632;51.718;19.446;2023-04-08T04:05:21;100136.41;;;3.81;100.00
70971;BME280;58632;51.718;19.446;2023-04-08T04:07:47;100139.27;;;3.82;100.00
70971;BME280;58632;51.718;19.446;2023-04-08T04:10:13;100149.79;;;3.80;100.00
70971;BME280;58632;51.718;19.446;2023-04-08T04:12:38;100149.08;;;3.75;100.00
70971;BME280;58632;51.718;19.446;2023-04-08T04:15:04;100154.38;;;3.71;100.00
70971;BME280;58632;51.718;19.446;2023-04-08T04:17:30;100159.35;;;3.69;100.00
70971;BME280;58632;51.718;19.446;2023-04-08T04:19:55;100163.30;;;3.66;100.00
70971;BME280;58632;51.718;19.446;2023-04-08T04:22:20;100162.20;;;3.62;100.00
70971;BME280;58632;51.718;19.446;2023-04-08T04:24:47;100168.54;;;3.62;100.00
70971;BME280;58632;51.718;19.446;2023-04-08T04:27:13;100168.17;;;3.64;100.00
70971;BME280;58632;51.718;19.446;2023-04-08T04:29:39;100164.05;;;3.65;100.00
70971;BME280;58632;51.718;19.446;2023-04-08T04:32:04;100172.24;;;3.68;100.00
70971;BME280;58632;51.718;19.446;2023-04-08T04:34:31;100181.06;;;3.68;100.00
70971;BME280;58632;51.718;19.446;2023-04-08T04:36:56;100184.25;;;3.64;100.00
70971;BME280;58632;51.718;19.446;2023-04-08T04:39:22;100183.94;;;3.62;100.00
70971;BME280;58632;51.718;19.446;2023-04-08T04:41:47;100191.45;;;3.62;100.00
70971;BME280;58632;51.718;19.446;2023-04-08T04:44:13;100194.53;;;3.60;100.00
70971;BME280;58632;51.718;19.446;2023-04-08T04:46:39;100198.05;;;3.60;100.00
70971;BME280;58632;51.718;19.446;2023-04-08T04:49:04;100193.80;;;3.68;100.00
70971;BME280;58632;51.718;19.446;2023-04-08T04:51:30;100193.04;;;4.27;100.00
70971;BME280;58632;51.718;19.446;2023-04-08T04:53:57;100190.61;;;4.91;100.00
70971;BME280;58632;51.718;19.446;2023-04-08T04:56:22;100185.33;;;5.24;100.00
70971;BME280;58632;51.718;19.446;2023-04-08T04:58:48;100181.73;;;5.53;100.00
70971;BME280;58632;51.718;19.446;2023-04-08T05:01:13;100180.67;;;5.83;100.00
70971;BME280;58632;51.718;19.446;2023-04-08T05:03:39;100179.72;;;6.01;100.00
70971;BME280;58632;51.718;19.446;2023-04-08T05:06:05;100178.15;;;6.23;100.00
70971;BME280;58632;51.718;19.446;2023-04-08T05:08:30;100174.48;;;6.60;100.00
70971;BME280;58632;51.718;19.446;2023-04-08T05:10:56;100178.13;;;6.84;100.00
70971;BME280;58632;51.718;19.446;2023-04-08T05:13:23;100178.10;;;6.80;100.00
70971;BME280;58632;51.718;19.446;2023-04-08T05:15:49;100179.79;;;6.92;100.00
70971;BME280;58632;51.718;19.446;2023-04-08T05:18:15;100177.53;;;6.99;100.00
70971;BME280;58632;51.718;19.446;2023-04-08T05:20:41;100184.55;;;7.19;100.00
70971;BME280;58632;51.718;19.446;2023-04-08T05:23:06;100184.85;;;7.50;100.00
70971;BME280;58632;51.718;19.446;2023-04-08T05:25:32;100187.48;;;7.86;100.00
70971;BME280;58632;51.718;19.446;2023-04-08T05:27:58;100188.14;;;8.02;100.00
70971;BME280;58632;51.718;19.446;2023-04-08T05:30:23;100188.42;;;8.27;100.00
70971;BME280;58632;51.718;19.446;2023-04-08T05:32:49;100185.00;;;8.33;100.00
70971;BME280;58632;51.718;19.446;2023-04-08T05:35:15;100185.04;;;8.52;100.00
70971;BME280;58632;51.718;19.446;2023-04-08T05:37:41;100187.42;;;8.73;100.00
70971;BME280;58632;51.718;19.446;2023-04-08T05:40:06;100185.07;;;8.73;100.00
70971;BME280;58632;51.718;19.446;2023-04-08T05:42:32;100188.13;;;8.67;100.00
70971;BME280;58632;51.718;19.446;2023-04-08T05:44:58;100191.73;;;8.54;100.00
70971;BME280;58632;51.718;19.446;2023-04-08T05:47:23;100187.73;;;8.89;100.00
70971;BME280;58632;51.718;19.446;2023-04-08T05:49:49;100189.83;;;9.61;100.00
70971;BME280;58632;51.718;19.446;2023-04-08T05:52:14;100194.42;;;10.15;100.00
70971;BME280;58632;51.718;19.446;2023-04-08T05:54:44;100191.69;;;10.61;100.00
70971;BME280;58632;51.718;19.446;2023-04-08T05:57:10;100190.40;;;11.05;100.00
70971;BME280;58632;51.718;19.446;2023-04-08T05:59:35;100195.23;;;11.06;100.00
70971;BME280;58632;51.718;19.446;2023-04-08T06:02:01;100194.70;;;11.34;100.00
70971;BME280;58632;51.718;19.446;2023-04-08T06:04:26;100197.48;;;11.71;100.00
70971;BME280;58632;51.718;19.446;2023-04-08T06:06:52;100195.09;;;11.97;100.00
70971;BME280;58632;51.718;19.446;2023-04-08T06:09:18;100200.61;;;12.03;99.87
70971;BME280;58632;51.718;19.446;2023-04-08T06:11:43;100201.10;;;12.10;100.00
70971;BME280;58632;51.718;19.446;2023-04-08T06:14:11;100205.73;;;12.38;100.00
70971;BME280;58632;51.718;19.446;2023-04-08T06:16:37;100204.50;;;12.69;99.91
70971;BME280;58632;51.718;19.446;2023-04-08T06:19:02;100207.02;;;13.00;99.92
70971;BME280;58632;51.718;19.446;2023-04-08T06:21:28;100208.60;;;13.23;99.64
70971;BME280;58632;51.718;19.446;2023-04-08T06:23:53;100216.47;;;13.30;99.92
70971;BME280;58632;51.718;19.446;2023-04-08T06:26:19;100217.73;;;13.19;96.72
70971;BME280;58632;51.718;19.446;2023-04-08T06:28:44;100219.27;;;12.92;91.86
70971;BME280;58632;51.718;19.446;2023-04-08T06:31:10;100221.78;;;12.60;91.79
70971;BME280;58632;51.718;19.446;2023-04-08T06:33:36;100227.23;;;12.43;94.41
70971;BME280;58632;51.718;19.446;2023-04-08T06:36:02;100225.79;;;12.27;94.64
70971;BME280;58632;51.718;19.446;2023-04-08T06:38:28;100230.05;;;12.17;94.63
70971;BME280;58632;51.718;19.446;2023-04-08T06:40:53;100235.52;;;11.90;86.99
70971;BME280;58632;51.718;19.446;2023-04-08T06:43:19;100233.70;;;11.54;91.53
70971;BME280;58632;51.718;19.446;2023-04-08T06:45:44;100234.49;;;11.35;92.97
70971;BME280;58632;51.718;19.446;2023-04-08T06:48:10;100238.25;;;11.33;94.86
70971;BME280;58632;51.718;19.446;2023-04-08T06:50:36;100240.28;;;11.25;91.89
70971;BME280;58632;51.718;19.446;2023-04-08T06:53:01;100242.18;;;11.16;96.87
70971;BME280;58632;51.718;19.446;2023-04-08T06:55:27;100242.72;;;11.22;97.67
70971;BME280;58632;51.718;19.446;2023-04-08T06:57:53;100246.86;;;11.11;91.95
70971;BME280;58632;51.718;19.446;2023-04-08T07:00:18;100241.34;;;10.99;92.83
70971;BME280;58632;51.718;19.446;2023-04-08T07:02:44;100246.25;;;11.00;97.78
70971;BME280;58632;51.718;19.446;2023-04-08T07:05:10;100252.52;;;10.96;91.13
70971;BME280;58632;51.718;19.446;2023-04-08T07:07:36;100253.11;;;10.83;91.98
70971;BME280;58632;51.718;19.446;2023-04-08T07:10:01;100253.81;;;10.74;94.85
70971;BME280;58632;51.718;19.446;2023-04-08T07:12:27;100262.17;;;10.90;97.81
70971;BME280;58632;51.718;19.446;2023-04-08T07:14:52;100265.42;;;10.98;94.47
70971;BME280;58632;51.718;19.446;2023-04-08T07:17:18;100269.11;;;11.00;93.36
70971;BME280;58632;51.718;19.446;2023-04-08T07:19:44;100270.59;;;11.00;94.02
70971;BME280;58632;51.718;19.446;2023-04-08T07:22:09;100270.05;;;11.02;93.26
70971;BME280;58632;51.718;19.446;2023-04-08T07:24:35;100276.20;;;10.95;93.47
70971;BME280;58632;51.718;19.446;2023-04-08T07:27:01;100272.68;;;11.06;93.44
70971;BME280;58632;51.718;19.446;2023-04-08T07:29:27;100274.55;;;11.09;93.80
70971;BME280;58632;51.718;19.446;2023-04-08T07:31:52;100286.09;;;11.10;91.58
70971;BME280;58632;51.718;19.446;2023-04-08T07:34:18;100281.30;;;11.08;93.20
70971;BME280;58632;51.718;19.446;2023-04-08T07:36:43;100279.56;;;11.14;91.35
70971;BME280;58632;51.718;19.446;2023-04-08T07:39:09;100279.20;;;11.23;91.36
70971;BME280;58632;51.718;19.446;2023-04-08T07:41:35;100283.24;;;11.13;91.55
70971;BME280;58632;51.718;19.446;2023-04-08T07:44:01;100278.86;;;11.15;95.53
70971;BME280;58632;51.718;19.446;2023-04-08T07:46:26;100280.11;;;11.53;97.59
70971;BME280;58632;51.718;19.446;2023-04-08T07:48:52;100283.27;;;11.74;91.66
70971;BME280;58632;51.718;19.446;2023-04-08T07:51:17;100277.73;;;11.76;89.92
70971;BME280;58632;51.718;19.446;2023-04-08T07:53:43;100277.16;;;11.80;88.77
70971;BME280;58632;51.718;19.446;2023-04-08T07:56:12;100281.07;;;11.88;89.24
70971;BME280;58632;51.718;19.446;2023-04-08T07:58:38;100280.21;;;11.90;87.94
70971;BME280;58632;51.718;19.446;2023-04-08T08:01:13;100282.14;;;11.73;91.98
70971;BME280;58632;51.718;19.446;2023-04-08T08:03:38;100286.64;;;11.77;95.80
70971;BME280;58632;51.718;19.446;2023-04-08T08:06:04;100285.47;;;11.76;87.92
70971;BME280;58632;51.718;19.446;2023-04-08T08:08:30;100286.48;;;11.71;91.47
70971;BME280;58632;51.718;19.446;2023-04-08T08:10:57;100284.02;;;11.87;91.22
70971;BME280;58632;51.718;19.446;2023-04-08T08:13:23;100288.98;;;11.75;89.37
70971;BME280;58632;51.718;19.446;2023-04-08T08:15:51;100287.36;;;11.57;88.73
70971;BME280;58632;51.718;19.446;2023-04-08T08:18:17;100286.25;;;11.61;94.22
70971;BME280;58632;51.718;19.446;2023-04-08T08:20:43;100289.22;;;11.71;95.44
70971;BME280;58632;51.718;19.446;2023-04-08T08:23:08;100285.58;;;11.63;94.33
70971;BME280;58632;51.718;19.446;2023-04-08T08:25:34;100280.34;;;11.46;96.86
70971;BME280;58632;51.718;19.446;2023-04-08T08:28:00;100281.98;;;11.53;99.04
70971;BME280;58632;51.718;19.446;2023-04-08T08:30:25;100287.29;;;11.47;97.87
70971;BME280;58632;51.718;19.446;2023-04-08T08:32:51;100280.90;;;11.40;97.04
70971;BME280;58632;51.718;19.446;2023-04-08T08:35:17;100279.16;;;11.40;97.14
70971;BME280;58632;51.718;19.446;2023-04-08T08:37:43;100279.35;;;11.33;97.92
70971;BME280;58632;51.718;19.446;2023-04-08T08:40:08;100285.84;;;11.29;98.76
70971;BME280;58632;51.718;19.446;2023-04-08T08:42:34;100291.09;;;11.15;96.87
70971;BME280;58632;51.718;19.446;2023-04-08T08:45:03;100294.70;;;11.16;98.91
70971;BME280;58632;51.718;19.446;2023-04-08T08:47:29;100298.98;;;11.18;97.49
70971;BME280;58632;51.718;19.446;2023-04-08T08:49:55;100300.23;;;11.29;97.66
70971;BME280;58632;51.718;19.446;2023-04-08T08:52:20;100302.30;;;11.08;98.93
70971;BME280;58632;51.718;19.446;2023-04-08T08:54:46;100305.58;;;10.97;99.98
70971;BME280;58632;51.718;19.446;2023-04-08T08:57:15;100307.73;;;10.92;100.00
70971;BME280;58632;51.718;19.446;2023-04-08T08:59:41;100310.27;;;11.00;100.00
70971;BME280;58632;51.718;19.446;2023-04-08T09:02:22;100305.84;;;10.97;100.00
70971;BME280;58632;51.718;19.446;2023-04-08T09:04:57;100313.61;;;11.02;100.00
70971;BME280;58632;51.718;19.446;2023-04-08T09:07:24;100319.21;;;11.15;100.00
70971;BME280;58632;51.718;19.446;2023-04-08T09:09:51;100320.14;;;11.43;100.00
70971;BME280;58632;51.718;19.446;2023-04-08T09:12:17;100325.65;;;11.67;100.00
70971;BME280;58632;51.718;19.446;2023-04-08T09:14:42;100326.44;;;11.78;98.91
70971;BME280;58632;51.718;19.446;2023-04-08T09:17:08;100333.27;;;11.91;98.62
70971;BME280;58632;51.718;19.446;2023-04-08T09:19:34;100337.20;;;11.80;97.09
70971;BME280;58632;51.718;19.446;2023-04-08T09:22:03;100336.50;;;11.77;99.37
70971;BME280;58632;51.718;19.446;2023-04-08T09:24:29;100338.35;;;11.78;99.59
70971;BME280;58632;51.718;19.446;2023-04-08T09:26:55;100342.33;;;12.06;99.81
70971;BME280;58632;51.718;19.446;2023-04-08T09:29:22;100340.30;;;12.21;95.40
70971;BME280;58632;51.718;19.446;2023-04-08T09:31:47;100343.02;;;12.27;98.21
70971;BME280;58632;51.718;19.446;2023-04-08T09:34:17;100340.42;;;12.34;96.49
70971;BME280;58632;51.718;19.446;2023-04-08T09:36:51;100341.76;;;12.31;98.62
70971;BME280;58632;51.718;19.446;2023-04-08T09:39:16;100342.10;;;12.36;98.57
70971;BME280;58632;51.718;19.446;2023-04-08T09:41:42;100344.45;;;12.27;94.30
70971;BME280;58632;51.718;19.446;2023-04-08T09:44:09;100341.77;;;12.16;93.35
70971;BME280;58632;51.718;19.446;2023-04-08T09:49:10;100343.52;;;11.80;93.66
70971;BME280;58632;51.718;19.446;2023-04-08T09:54:18;100334.52;;;12.02;100.00
70971;BME280;58632;51.718;19.446;2023-04-08T09:56:50;100333.39;;;12.24;97.31
70971;BME280;58632;51.718;19.446;2023-04-08T09:59:18;100334.16;;;12.37;98.86
70971;BME280;58632;51.718;19.446;2023-04-08T10:01:51;100330.54;;;12.68;98.21
70971;BME280;58632;51.718;19.446;2023-04-08T10:04:17;100330.80;;;12.98;96.91
70971;BME280;58632;51.718;19.446;2023-04-08T10:06:46;100336.55;;;13.09;90.68
70971;BME280;58632;51.718;19.446;2023-04-08T10:09:15;100337.10;;;12.88;87.33
70971;BME280;58632;51.718;19.446;2023-04-08T10:11:41;100334.23;;;12.85;91.35
70971;BME280;58632;51.718;19.446;2023-04-08T10:14:08;100331.58;;;12.91;90.74
70971;BME280;58632;51.718;19.446;2023-04-08T10:16:33;100330.09;;;12.84;89.03
70971;BME280;58632;51.718;19.446;2023-04-08T10:18:59;100332.52;;;12.68;89.81
70971;BME280;58632;51.718;19.446;2023-04-08T10:21:35;100332.11;;;12.72;96.34
70971;BME280;58632;51.718;19.446;2023-04-08T10:24:07;100329.41;;;12.71;91.72
70971;BME280;58632;51.718;19.446;2023-04-08T10:31:42;100331.05;;;12.90;92.59
70971;BME280;58632;51.718;19.446;2023-04-08T10:34:14;100321.66;;;12.85;92.65
70971;BME280;58632;51.718;19.446;2023-04-08T10:36:40;100322.34;;;12.79;91.75
70971;BME280;58632;51.718;19.446;2023-04-08T10:39:05;100320.43;;;12.74;93.52
70971;BME280;58632;51.718;19.446;2023-04-08T10:41:31;100319.58;;;12.65;94.96
70971;BME280;58632;51.718;19.446;2023-04-08T10:43:57;100316.38;;;12.57;97.17
70971;BME280;58632;51.718;19.446;2023-04-08T10:46:22;100321.95;;;12.49;95.99
70971;BME280;58632;51.718;19.446;2023-04-08T10:49:00;100318.77;;;12.29;98.00
70971;BME280;58632;51.718;19.446;2023-04-08T10:51:29;100317.10;;;12.20;99.97
70971;BME280;58632;51.718;19.446;2023-04-08T10:53:56;100319.79;;;12.09;99.98
70971;BME280;58632;51.718;19.446;2023-04-08T10:56:29;100315.39;;;12.07;98.82
70971;BME280;58632;51.718;19.446;2023-04-08T10:58:55;100314.34;;;12.13;100.00
70971;BME280;58632;51.718;19.446;2023-04-08T11:01:21;100318.13;;;12.28;100.00
70971;BME280;58632;51.718;19.446;2023-04-08T11:03:47;100315.10;;;12.51;99.25
70971;BME280;58632;51.718;19.446;2023-04-08T11:06:13;100322.91;;;12.78;99.78
70971;BME280;58632;51.718;19.446;2023-04-08T11:08:39;100318.50;;;13.04;98.54
70971;BME280;58632;51.718;19.446;2023-04-08T11:11:05;100316.57;;;13.21;99.74
70971;BME280;58632;51.718;19.446;2023-04-08T11:13:33;100320.84;;;13.27;93.70
70971;BME280;58632;51.718;19.446;2023-04-08T11:16:00;100319.98;;;13.07;88.18
70971;BME280;58632;51.718;19.446;2023-04-08T11:18:26;100319.65;;;12.80;88.10
70971;BME280;58632;51.718;19.446;2023-04-08T11:20:52;100319.47;;;12.69;90.18
70971;BME280;58632;51.718;19.446;2023-04-08T11:23:18;100317.58;;;12.61;91.77
70971;BME280;58632;51.718;19.446;2023-04-08T11:25:44;100319.35;;;12.57;93.96
70971;BME280;58632;51.718;19.446;2023-04-08T11:28:14;100319.61;;;12.55;94.80
70971;BME280;58632;51.718;19.446;2023-04-08T11:30:40;100315.44;;;12.53;93.34
70971;BME280;58632;51.718;19.446;2023-04-08T11:33:06;100311.66;;;12.53;94.27
70971;BME280;58632;51.718;19.446;2023-04-08T11:35:32;100313.34;;;12.48;90.08
70971;BME280;58632;51.718;19.446;2023-04-08T11:37:57;100317.95;;;12.45;93.81
70971;BME280;58632;51.718;19.446;2023-04-08T11:40:23;100310.49;;;12.57;93.12
70971;BME280;58632;51.718;19.446;2023-04-08T11:42:50;100313.83;;;12.68;92.62
70971;BME280;58632;51.718;19.446;2023-04-08T11:45:16;100312.34;;;12.84;91.05
70971;BME280;58632;51.718;19.446;2023-04-08T11:47:42;100312.80;;;13.07;92.60
70971;BME280;58632;51.718;19.446;2023-04-08T11:50:08;100312.48;;;13.35;89.62
70971;BME280;58632;51.718;19.446;2023-04-08T11:52:40;100307.75;;;13.48;82.89
70971;BME280;58632;51.718;19.446;2023-04-08T11:55:07;100302.67;;;13.58;84.30
70971;BME280;58632;51.718;19.446;2023-04-08T11:57:33;100305.23;;;13.66;83.51
70971;BME280;58632;51.718;19.446;2023-04-08T11:59:58;100303.63;;;13.76;83.06
70971;BME280;58632;51.718;19.446;2023-04-08T12:02:24;100303.41;;;13.89;81.39
70971;BME280;58632;51.718;19.446;2023-04-08T12:04:50;100300.81;;;13.95;77.17
70971;BME280;58632;51.718;19.446;2023-04-08T12:07:16;100299.61;;;14.01;79.89
70971;BME280;58632;51.718;19.446;2023-04-08T12:09:42;100300.27;;;14.08;73.52
70971;BME280;58632;51.718;19.446;2023-04-08T12:12:08;100302.23;;;14.15;72.17
70971;BME280;58632;51.718;19.446;2023-04-08T12:14:33;100301.34;;;14.31;72.13
70971;BME280;58632;51.718;19.446;2023-04-08T12:16:59;100301.23;;;14.40;67.02
70971;BME280;58632;51.718;19.446;2023-04-08T12:19:25;100291.73;;;14.43;71.60
70971;BME280;58632;51.718;19.446;2023-04-08T12:21:51;100289.72;;;14.51;69.02
70971;BME280;58632;51.718;19.446;2023-04-08T12:24:16;100295.61;;;14.56;65.61
70971;BME280;58632;51.718;19.446;2023-04-08T12:26:42;100292.27;;;14.51;68.15
70971;BME280;58632;51.718;19.446;2023-04-08T12:29:08;100295.02;;;14.45;66.20
70971;BME280;58632;51.718;19.446;2023-04-08T12:31:36;100291.36;;;14.41;63.11
70971;BME280;58632;51.718;19.446;2023-04-08T12:34:01;100294.50;;;14.33;63.58
70971;BME280;58632;51.718;19.446;2023-04-08T12:36:27;100292.14;;;14.27;60.75
70971;BME280;58632;51.718;19.446;2023-04-08T12:38:52;100284.08;;;14.16;61.64
70971;BME280;58632;51.718;19.446;2023-04-08T12:41:18;100284.85;;;14.07;62.24
70971;BME280;58632;51.718;19.446;2023-04-08T12:43:43;100287.27;;;13.93;63.84
70971;BME280;58632;51.718;19.446;2023-04-08T12:46:09;100287.98;;;13.82;64.57